Tunquen — CA2993 — position and weather

sailwx.info

Track history (hours):
 
Tides and Currents Weather Stations Pressure Air Temp Water Temp Dewpoint Dewpoint Depression Visibility Wind Speed Wind Dir Waves Ship Positions

Tunquen

Last reported at 2017-Nov-18 02:03 UTC. Time now 2017-Nov-18 02:51 UTC.
Position S 33°02' W 071°37'.

Length 31 m; draft 4.5 m.

Type: Tug. MMSI: 725000736.

Date/timePositionNaut miles runAvg speedWind from/ knotsBaromVisibWave heightAir tempDewpointWater temp
2017-Nov-18 02:03S 33°02' W 071°37'0 0.0
2017-Nov-18 02:00S 33°02' W 071°37'0 0.0
2017-Nov-18 01:30S 33°02' W 071°37'0 0.0
2017-Nov-18 00:59S 33°02' W 071°37'1 1.2
2017-Nov-17 23:46S 33°01' W 071°37'1 3.0
2017-Nov-17 23:17S 33°02' W 071°37'0 0.0
2017-Nov-17 22:53S 33°02' W 071°37'0 0.0
2017-Nov-17 22:30S 33°02' W 071°37'0 0.0
2017-Nov-17 22:00S 33°02' W 071°37'0 0.0
2017-Nov-17 21:27S 33°02' W 071°37'0 0.1
2017-Nov-17 21:00S 33°02' W 071°37'0 0.0
2017-Nov-17 20:30S 33°02' W 071°37'0 0.0
2017-Nov-17 20:01S 33°02' W 071°37'0 0.0
2017-Nov-17 19:30S 33°02' W 071°37'5 3.7
2017-Nov-17 18:05S 32°57' W 071°36'1 7.5
2017-Nov-17 18:01S 32°57' W 071°36'4 7.4
2017-Nov-17 17:30S 32°53' W 071°35'4 7.3
2017-Nov-17 17:01S 32°50' W 071°34'4 7.0
2017-Nov-17 16:30S 32°46' W 071°33'2 2.3
2017-Nov-17 15:46S 32°46' W 071°31'0 0.0
2017-Nov-17 00:51S 32°46' W 071°31'0 0.0
2017-Nov-17 00:21S 32°46' W 071°31'0 0.0
2017-Nov-16 23:57S 32°46' W 071°31'0 0.0
2017-Nov-16 23:29S 32°46' W 071°31'0 0.0
2017-Nov-16 22:47S 32°46' W 071°31'0 0.0
2017-Nov-16 22:26S 32°46' W 071°31'0 0.0
2017-Nov-16 21:55S 32°46' W 071°31'0 0.0
2017-Nov-16 21:23S 32°46' W 071°31'0 0.0
2017-Nov-16 20:58S 32°46' W 071°31'0 0.0
2017-Nov-16 20:28S 32°46' W 071°31'0 0.0
2017-Nov-16 16:05S 32°46' W 071°31'0 0.0
2017-Nov-16 15:59S 32°46' W 071°31'0 0.0
2017-Nov-16 14:42S 32°46' W 071°31'0 0.0
2017-Nov-16 14:25S 32°46' W 071°31'0 0.0
2017-Nov-16 03:44S 32°46' W 071°31'0 0.0
2017-Nov-16 03:19S 32°46' W 071°31'0 0.0
2017-Nov-16 01:06S 32°46' W 071°31'0 0.0
2017-Nov-16 01:00S 32°46' W 071°31'0 0.0
2017-Nov-16 00:30S 32°46' W 071°31'0 0.0
2017-Nov-16 00:00S 32°46' W 071°31'0 0.0
2017-Nov-15 23:27S 32°46' W 071°31'0 0.0
2017-Nov-15 22:55S 32°46' W 071°31'0 0.0
2017-Nov-15 22:27S 32°46' W 071°31'0 0.0
2017-Nov-15 21:57S 32°46' W 071°31'0 0.0
2017-Nov-15 21:29S 32°46' W 071°31'0 0.0
2017-Nov-15 16:52S 32°46' W 071°31'0 0.0
2017-Nov-15 16:30S 32°46' W 071°31'0 0.0
2017-Nov-15 16:00S 32°46' W 071°31'0 0.1
2017-Nov-15 14:38S 32°46' W 071°31'3 0.2
2017-Nov-14 22:28S 32°49' W 071°34'4 9.2
2017-Nov-14 22:00S 32°53' W 071°35'5 9.1
2017-Nov-14 21:30S 32°57' W 071°36'5 3.0
2017-Nov-14 19:44S 33°02' W 071°37'0 0.0
2017-Nov-14 19:30S 33°02' W 071°37'0 0.0
2017-Nov-14 18:56S 33°02' W 071°37'2 4.2
2017-Nov-14 18:23S 33°00' W 071°37'4 9.7
2017-Nov-14 18:00S 32°57' W 071°36'5 9.8
2017-Nov-14 17:31S 32°52' W 071°35'5 9.8
2017-Nov-14 17:00S 32°47' W 071°34'16 0.4
2017-Nov-13 01:46S 33°02' W 071°37'0 0.0
2017-Nov-13 01:29S 33°02' W 071°37'0 0.0
2017-Nov-12 22:22S 33°02' W 071°37'0 0.0
2017-Nov-12 21:04S 33°02' W 071°37'0 0.0
2017-Nov-12 20:06S 33°02' W 071°37'0 0.0
2017-Nov-12 19:33S 33°02' W 071°37'0 0.0
2017-Nov-12 19:30S 33°02' W 071°37'0 0.0
2017-Nov-12 18:26S 33°02' W 071°37'0 0.0
2017-Nov-12 17:13S 33°02' W 071°37'0 0.0
2017-Nov-12 16:59S 33°02' W 071°37'0 0.0
2017-Nov-12 16:23S 33°02' W 071°37'0 0.0
2017-Nov-12 15:54S 33°02' W 071°37'0 0.0
2017-Nov-12 15:23S 33°02' W 071°37'0 0.0
2017-Nov-12 14:59S 33°02' W 071°37'0 0.0
2017-Nov-12 14:31S 33°02' W 071°37'0 0.0
2017-Nov-12 14:00S 33°02' W 071°37'0 0.0
2017-Nov-12 13:31S 33°02' W 071°37'0 0.0
2017-Nov-12 13:01S 33°02' W 071°37'0 0.0
2017-Nov-12 12:31S 33°02' W 071°37'0 0.0
2017-Nov-12 12:01S 33°02' W 071°37'0 0.0
2017-Nov-12 11:29S 33°02' W 071°37'0 0.0
2017-Nov-12 10:59S 33°02' W 071°37'0 0.0
2017-Nov-12 10:30S 33°02' W 071°37'0 0.8
2017-Nov-12 10:00S 33°02' W 071°38'0 0.1
2017-Nov-12 09:30S 33°02' W 071°38'2 2.5
2017-Nov-12 08:54S 33°01' W 071°36'2 0.2
2017-Nov-12 01:19S 33°02' W 071°37'0 0.0
2017-Nov-12 00:07S 33°02' W 071°37'0 0.0
2017-Nov-11 23:59S 33°02' W 071°37'0 0.0
2017-Nov-11 23:26S 33°02' W 071°37'0 0.0
2017-Nov-11 23:01S 33°02' W 071°37'0 0.0
2017-Nov-11 22:31S 33°02' W 071°37'0 0.0
2017-Nov-11 22:00S 33°02' W 071°37'0 0.0
2017-Nov-11 21:25S 33°02' W 071°37'0 0.0
2017-Nov-11 21:00S 33°02' W 071°37'1 0.3
2017-Nov-11 18:52S 33°02' W 071°38'1 1.0
2017-Nov-11 18:05S 33°02' W 071°37'0 0.0
2017-Nov-11 16:08S 33°02' W 071°37'0 0.0
2017-Nov-11 15:57S 33°02' W 071°37'0 0.0
2017-Nov-11 15:26S 33°02' W 071°37'0 0.0
2017-Nov-11 15:00S 33°02' W 071°37'0 0.0
2017-Nov-11 14:31S 33°02' W 071°37'0 0.0
2017-Nov-11 13:42S 33°02' W 071°37'0 0.0
2017-Nov-11 13:17S 33°02' W 071°37'1 1.0
2017-Nov-11 12:26S 33°02' W 071°38'1 1.2
2017-Nov-11 11:45S 33°02' W 071°37'0 0.0
2017-Nov-11 11:30S 33°02' W 071°37'0 0.0
2017-Nov-11 10:58S 33°02' W 071°37'0 0.0
2017-Nov-11 10:31S 33°02' W 071°37'0 0.0
2017-Nov-11 10:01S 33°02' W 071°37'0 0.0
2017-Nov-11 09:26S 33°02' W 071°37'0 0.0
2017-Nov-11 07:47S 33°02' W 071°37'0 0.0
2017-Nov-11 07:30S 33°02' W 071°37'0 0.0
2017-Nov-11 07:00S 33°02' W 071°37'0 0.0
2017-Nov-11 06:27S 33°02' W 071°37'0 0.0
2017-Nov-11 06:00S 33°02' W 071°37'0 0.0
2017-Nov-11 05:30S 33°02' W 071°37'0 0.0
2017-Nov-11 05:00S 33°02' W 071°37'0 0.0
2017-Nov-11 04:23S 33°02' W 071°37'0 0.0
2017-Nov-11 03:44S 33°02' W 071°37'0 0.0
2017-Nov-11 03:29S 33°02' W 071°37'0 0.0
2017-Nov-11 03:01S 33°02' W 071°37'0 0.0
2017-Nov-11 02:26S 33°02' W 071°37'0 0.0
2017-Nov-11 02:00S 33°02' W 071°37'0 0.0
2017-Nov-11 01:30S 33°02' W 071°37'1 1.6
2017-Nov-11 00:59S 33°02' W 071°38'1 1.2
2017-Nov-11 00:29S 33°02' W 071°37'1 1.3
2017-Nov-11 00:00S 33°02' W 071°37'0 0.0
2017-Nov-10 23:29S 33°02' W 071°37'0 0.0
2017-Nov-10 23:01S 33°02' W 071°37'0 0.0
2017-Nov-10 22:30S 33°02' W 071°37'0 0.0
2017-Nov-10 21:59S 33°02' W 071°37'0 0.0
2017-Nov-10 21:29S 33°02' W 071°37'0 0.1
2017-Nov-10 21:00S 33°02' W 071°37'1 1.9
2017-Nov-10 20:25S 33°01' W 071°37'1 1.2
2017-Nov-10 20:00S 33°02' W 071°37'0 1.0
2017-Nov-10 19:30S 33°02' W 071°38'0 0.2
2017-Nov-10 18:52S 33°02' W 071°38'1 0.2
2017-Nov-10 16:03S 33°02' W 071°37'0 0.0
2017-Nov-10 15:58S 33°02' W 071°37'0 0.0
2017-Nov-10 15:30S 33°02' W 071°37'0 0.0
2017-Nov-10 13:01S 33°02' W 071°37'0 0.0
2017-Nov-10 13:00S 33°02' W 071°37'0 0.0
2017-Nov-10 12:29S 33°02' W 071°37'0 0.0
2017-Nov-10 11:55S 33°02' W 071°37'0 0.0
2017-Nov-10 11:30S 33°02' W 071°37'0 0.0
2017-Nov-10 11:01S 33°02' W 071°37'0 0.0
2017-Nov-10 10:30S 33°02' W 071°37'0 0.0
2017-Nov-10 09:59S 33°02' W 071°37'0 1.0
2017-Nov-10 09:30S 33°02' W 071°37'0 0.3
2017-Nov-10 08:50S 33°02' W 071°38'1 1.6
2017-Nov-10 08:30S 33°02' W 071°37'0 0.0
2017-Nov-10 08:00S 33°02' W 071°37'0 0.0
2017-Nov-10 07:29S 33°02' W 071°37'0 0.0
2017-Nov-10 07:00S 33°02' W 071°37'0 0.0
2017-Nov-10 06:30S 33°02' W 071°37'0 0.0
2017-Nov-10 06:00S 33°02' W 071°37'0 0.0
2017-Nov-10 05:15S 33°02' W 071°37'0 0.0
2017-Nov-10 05:00S 33°02' W 071°37'0 0.0
2017-Nov-10 04:25S 33°02' W 071°37'0 0.0
2017-Nov-10 03:49S 33°02' W 071°37'0 0.0
2017-Nov-10 03:24S 33°02' W 071°37'0 0.0
2017-Nov-10 03:00S 33°02' W 071°37'0 0.0
2017-Nov-10 01:48S 33°02' W 071°37'0 0.1
2017-Nov-10 01:29S 33°02' W 071°37'0 0.0
2017-Nov-10 00:55S 33°02' W 071°37'0 0.1
2017-Nov-10 00:30S 33°02' W 071°37'4 7.7
2017-Nov-10 00:00S 32°59' W 071°37'4 7.6
2017-Nov-09 23:30S 32°55' W 071°37'4 7.2
2017-Nov-09 23:01S 32°51' W 071°36'4 7.3
2017-Nov-09 22:31S 32°48' W 071°34'3 6.2
2017-Nov-09 22:00S 32°46' W 071°32'1 0.2
2017-Nov-09 17:27S 32°46' W 071°31'0 0.0
2017-Nov-09 16:55S 32°46' W 071°31'0 0.2
2017-Nov-09 16:31S 32°46' W 071°31'0 0.1
2017-Nov-09 16:00S 32°47' W 071°32'0 0.0
2017-Nov-09 15:29S 32°47' W 071°32'0 0.0
2017-Nov-09 14:57S 32°47' W 071°32'0 0.0
2017-Nov-09 14:29S 32°47' W 071°32'0 0.0
2017-Nov-08 16:53S 32°46' W 071°31'0 0.0
2017-Nov-08 15:52S 32°46' W 071°31'  
Track history (hours):
 
Tides and Currents Weather Stations Pressure Air Temp Water Temp Dewpoint Dewpoint Depression Visibility Wind Speed Wind Dir Waves Ship Positions

Tunquen

Last reported at 2017-Nov-18 02:03 UTC. Time now 2017-Nov-18 02:51 UTC.
Position S 33°02' W 071°37'.

Length 31 m; draft 4.5 m.

Type: Tug. MMSI: 725000736.

Date/timePositionNaut miles runAvg speedWind from/ knotsBaromVisibWave heightAir tempDewpointWater temp
2017-Nov-18 02:03S 33°02' W 071°37'0 0.0
2017-Nov-18 02:00S 33°02' W 071°37'0 0.0
2017-Nov-18 01:30S 33°02' W 071°37'0 0.0
2017-Nov-18 00:59S 33°02' W 071°37'1 1.2
2017-Nov-17 23:46S 33°01' W 071°37'1 3.0
2017-Nov-17 23:17S 33°02' W 071°37'0 0.0
2017-Nov-17 22:53S 33°02' W 071°37'0 0.0
2017-Nov-17 22:30S 33°02' W 071°37'0 0.0
2017-Nov-17 22:00S 33°02' W 071°37'0 0.0
2017-Nov-17 21:27S 33°02' W 071°37'0 0.1
2017-Nov-17 21:00S 33°02' W 071°37'0 0.0
2017-Nov-17 20:30S 33°02' W 071°37'0 0.0
2017-Nov-17 20:01S 33°02' W 071°37'0 0.0
2017-Nov-17 19:30S 33°02' W 071°37'5 3.7
2017-Nov-17 18:05S 32°57' W 071°36'1 7.5
2017-Nov-17 18:01S 32°57' W 071°36'4 7.4
2017-Nov-17 17:30S 32°53' W 071°35'4 7.3
2017-Nov-17 17:01S 32°50' W 071°34'4 7.0
2017-Nov-17 16:30S 32°46' W 071°33'2 2.3
2017-Nov-17 15:46S 32°46' W 071°31'0 0.0
2017-Nov-17 00:51S 32°46' W 071°31'0 0.0
2017-Nov-17 00:21S 32°46' W 071°31'0 0.0
2017-Nov-16 23:57S 32°46' W 071°31'0 0.0
2017-Nov-16 23:29S 32°46' W 071°31'0 0.0
2017-Nov-16 22:47S 32°46' W 071°31'0 0.0
2017-Nov-16 22:26S 32°46' W 071°31'0 0.0
2017-Nov-16 21:55S 32°46' W 071°31'0 0.0
2017-Nov-16 21:23S 32°46' W 071°31'0 0.0
2017-Nov-16 20:58S 32°46' W 071°31'0 0.0
2017-Nov-16 20:28S 32°46' W 071°31'0 0.0
2017-Nov-16 16:05S 32°46' W 071°31'0 0.0
2017-Nov-16 15:59S 32°46' W 071°31'0 0.0
2017-Nov-16 14:42S 32°46' W 071°31'0 0.0
2017-Nov-16 14:25S 32°46' W 071°31'0 0.0
2017-Nov-16 03:44S 32°46' W 071°31'0 0.0
2017-Nov-16 03:19S 32°46' W 071°31'0 0.0
2017-Nov-16 01:06S 32°46' W 071°31'0 0.0
2017-Nov-16 01:00S 32°46' W 071°31'0 0.0
2017-Nov-16 00:30S 32°46' W 071°31'0 0.0
2017-Nov-16 00:00S 32°46' W 071°31'0 0.0
2017-Nov-15 23:27S 32°46' W 071°31'0 0.0
2017-Nov-15 22:55S 32°46' W 071°31'0 0.0
2017-Nov-15 22:27S 32°46' W 071°31'0 0.0
2017-Nov-15 21:57S 32°46' W 071°31'0 0.0
2017-Nov-15 21:29S 32°46' W 071°31'0 0.0
2017-Nov-15 16:52S 32°46' W 071°31'0 0.0
2017-Nov-15 16:30S 32°46' W 071°31'0 0.0
2017-Nov-15 16:00S 32°46' W 071°31'0 0.1
2017-Nov-15 14:38S 32°46' W 071°31'3 0.2
2017-Nov-14 22:28S 32°49' W 071°34'4 9.2
2017-Nov-14 22:00S 32°53' W 071°35'5 9.1
2017-Nov-14 21:30S 32°57' W 071°36'5 3.0
2017-Nov-14 19:44S 33°02' W 071°37'0 0.0
2017-Nov-14 19:30S 33°02' W 071°37'0 0.0
2017-Nov-14 18:56S 33°02' W 071°37'2 4.2
2017-Nov-14 18:23S 33°00' W 071°37'4 9.7
2017-Nov-14 18:00S 32°57' W 071°36'5 9.8
2017-Nov-14 17:31S 32°52' W 071°35'5 9.8
2017-Nov-14 17:00S 32°47' W 071°34'16 0.4
2017-Nov-13 01:46S 33°02' W 071°37'0 0.0
2017-Nov-13 01:29S 33°02' W 071°37'0 0.0
2017-Nov-12 22:22S 33°02' W 071°37'0 0.0
2017-Nov-12 21:04S 33°02' W 071°37'0 0.0
2017-Nov-12 20:06S 33°02' W 071°37'0 0.0
2017-Nov-12 19:33S 33°02' W 071°37'0 0.0
2017-Nov-12 19:30S 33°02' W 071°37'0 0.0
2017-Nov-12 18:26S 33°02' W 071°37'0 0.0
2017-Nov-12 17:13S 33°02' W 071°37'0 0.0
2017-Nov-12 16:59S 33°02' W 071°37'0 0.0
2017-Nov-12 16:23S 33°02' W 071°37'0 0.0
2017-Nov-12 15:54S 33°02' W 071°37'0 0.0
2017-Nov-12 15:23S 33°02' W 071°37'0 0.0
2017-Nov-12 14:59S 33°02' W 071°37'0 0.0
2017-Nov-12 14:31S 33°02' W 071°37'0 0.0
2017-Nov-12 14:00S 33°02' W 071°37'0 0.0
2017-Nov-12 13:31S 33°02' W 071°37'0 0.0
2017-Nov-12 13:01S 33°02' W 071°37'0 0.0
2017-Nov-12 12:31S 33°02' W 071°37'0 0.0
2017-Nov-12 12:01S 33°02' W 071°37'0 0.0
2017-Nov-12 11:29S 33°02' W 071°37'0 0.0
2017-Nov-12 10:59S 33°02' W 071°37'0 0.0
2017-Nov-12 10:30S 33°02' W 071°37'0 0.8
2017-Nov-12 10:00S 33°02' W 071°38'0 0.1
2017-Nov-12 09:30S 33°02' W 071°38'2 2.5
2017-Nov-12 08:54S 33°01' W 071°36'2 0.2
2017-Nov-12 01:19S 33°02' W 071°37'0 0.0
2017-Nov-12 00:07S 33°02' W 071°37'0 0.0
2017-Nov-11 23:59S 33°02' W 071°37'0 0.0
2017-Nov-11 23:26S 33°02' W 071°37'0 0.0
2017-Nov-11 23:01S 33°02' W 071°37'0 0.0
2017-Nov-11 22:31S 33°02' W 071°37'0 0.0
2017-Nov-11 22:00S 33°02' W 071°37'0 0.0
2017-Nov-11 21:25S 33°02' W 071°37'0 0.0
2017-Nov-11 21:00S 33°02' W 071°37'1 0.3
2017-Nov-11 18:52S 33°02' W 071°38'1 1.0
2017-Nov-11 18:05S 33°02' W 071°37'0 0.0
2017-Nov-11 16:08S 33°02' W 071°37'0 0.0
2017-Nov-11 15:57S 33°02' W 071°37'0 0.0
2017-Nov-11 15:26S 33°02' W 071°37'0 0.0
2017-Nov-11 15:00S 33°02' W 071°37'0 0.0
2017-Nov-11 14:31S 33°02' W 071°37'0 0.0
2017-Nov-11 13:42S 33°02' W 071°37'0 0.0
2017-Nov-11 13:17S 33°02' W 071°37'1 1.0
2017-Nov-11 12:26S 33°02' W 071°38'1 1.2
2017-Nov-11 11:45S 33°02' W 071°37'0 0.0
2017-Nov-11 11:30S 33°02' W 071°37'0 0.0
2017-Nov-11 10:58S 33°02' W 071°37'0 0.0
2017-Nov-11 10:31S 33°02' W 071°37'0 0.0
2017-Nov-11 10:01S 33°02' W 071°37'0 0.0
2017-Nov-11 09:26S 33°02' W 071°37'0 0.0
2017-Nov-11 07:47S 33°02' W 071°37'0 0.0
2017-Nov-11 07:30S 33°02' W 071°37'0 0.0
2017-Nov-11 07:00S 33°02' W 071°37'0 0.0
2017-Nov-11 06:27S 33°02' W 071°37'0 0.0
2017-Nov-11 06:00S 33°02' W 071°37'0 0.0
2017-Nov-11 05:30S 33°02' W 071°37'0 0.0
2017-Nov-11 05:00S 33°02' W 071°37'0 0.0
2017-Nov-11 04:23S 33°02' W 071°37'0 0.0
2017-Nov-11 03:44S 33°02' W 071°37'0 0.0
2017-Nov-11 03:29S 33°02' W 071°37'0 0.0
2017-Nov-11 03:01S 33°02' W 071°37'0 0.0
2017-Nov-11 02:26S 33°02' W 071°37'0 0.0
2017-Nov-11 02:00S 33°02' W 071°37'0 0.0
2017-Nov-11 01:30S 33°02' W 071°37'1 1.6
2017-Nov-11 00:59S 33°02' W 071°38'1 1.2
2017-Nov-11 00:29S 33°02' W 071°37'1 1.3
2017-Nov-11 00:00S 33°02' W 071°37'0 0.0
2017-Nov-10 23:29S 33°02' W 071°37'0 0.0
2017-Nov-10 23:01S 33°02' W 071°37'0 0.0
2017-Nov-10 22:30S 33°02' W 071°37'0 0.0
2017-Nov-10 21:59S 33°02' W 071°37'0 0.0
2017-Nov-10 21:29S 33°02' W 071°37'0 0.1
2017-Nov-10 21:00S 33°02' W 071°37'1 1.9
2017-Nov-10 20:25S 33°01' W 071°37'1 1.2
2017-Nov-10 20:00S 33°02' W 071°37'0 1.0
2017-Nov-10 19:30S 33°02' W 071°38'0 0.2
2017-Nov-10 18:52S 33°02' W 071°38'1 0.2
2017-Nov-10 16:03S 33°02' W 071°37'0 0.0
2017-Nov-10 15:58S 33°02' W 071°37'0 0.0
2017-Nov-10 15:30S 33°02' W 071°37'0 0.0
2017-Nov-10 13:01S 33°02' W 071°37'0 0.0
2017-Nov-10 13:00S 33°02' W 071°37'0 0.0
2017-Nov-10 12:29S 33°02' W 071°37'0 0.0
2017-Nov-10 11:55S 33°02' W 071°37'0 0.0
2017-Nov-10 11:30S 33°02' W 071°37'0 0.0
2017-Nov-10 11:01S 33°02' W 071°37'0 0.0
2017-Nov-10 10:30S 33°02' W 071°37'0 0.0
2017-Nov-10 09:59S 33°02' W 071°37'0 1.0
2017-Nov-10 09:30S 33°02' W 071°37'0 0.3
2017-Nov-10 08:50S 33°02' W 071°38'1 1.6
2017-Nov-10 08:30S 33°02' W 071°37'0 0.0
2017-Nov-10 08:00S 33°02' W 071°37'0 0.0
2017-Nov-10 07:29S 33°02' W 071°37'0 0.0
2017-Nov-10 07:00S 33°02' W 071°37'0 0.0
2017-Nov-10 06:30S 33°02' W 071°37'0 0.0
2017-Nov-10 06:00S 33°02' W 071°37'0 0.0
2017-Nov-10 05:15S 33°02' W 071°37'0 0.0
2017-Nov-10 05:00S 33°02' W 071°37'0 0.0
2017-Nov-10 04:25S 33°02' W 071°37'0 0.0
2017-Nov-10 03:49S 33°02' W 071°37'0 0.0
2017-Nov-10 03:24S 33°02' W 071°37'0 0.0
2017-Nov-10 03:00S 33°02' W 071°37'0 0.0
2017-Nov-10 01:48S 33°02' W 071°37'0 0.1
2017-Nov-10 01:29S 33°02' W 071°37'0 0.0
2017-Nov-10 00:55S 33°02' W 071°37'0 0.1
2017-Nov-10 00:30S 33°02' W 071°37'4 7.7
2017-Nov-10 00:00S 32°59' W 071°37'4 7.6
2017-Nov-09 23:30S 32°55' W 071°37'4 7.2
2017-Nov-09 23:01S 32°51' W 071°36'4 7.3
2017-Nov-09 22:31S 32°48' W 071°34'3 6.2
2017-Nov-09 22:00S 32°46' W 071°32'1 0.2
2017-Nov-09 17:27S 32°46' W 071°31'0 0.0
2017-Nov-09 16:55S 32°46' W 071°31'0 0.2
2017-Nov-09 16:31S 32°46' W 071°31'0 0.1
2017-Nov-09 16:00S 32°47' W 071°32'0 0.0
2017-Nov-09 15:29S 32°47' W 071°32'0 0.0
2017-Nov-09 14:57S 32°47' W 071°32'0 0.0
2017-Nov-09 14:29S 32°47' W 071°32'0 0.0
2017-Nov-08 16:53S 32°46' W 071°31'0 0.0
2017-Nov-08 15:52S 32°46' W 071°31'  

Dump ship's entire track history